createdAt,value
2019-01-04T00:00:57.178Z,0.50
2019-01-04T00:03:28.630Z,0.50
2019-01-04T00:05:59.998Z,0.40
2019-01-04T00:08:31.385Z,0.40
2019-01-04T00:11:03.081Z,0.30
2019-01-04T00:13:36.326Z,0.30
2019-01-04T00:16:07.756Z,0.30
2019-01-04T00:18:39.575Z,0.40
2019-01-04T00:21:11.120Z,0.30
2019-01-04T00:23:42.490Z,0.30
2019-01-04T00:26:16.648Z,0.30
2019-01-04T00:28:48.069Z,0.30
2019-01-04T00:31:19.403Z,0.30
2019-01-04T00:33:50.930Z,0.30
2019-01-04T00:36:22.270Z,0.30
2019-01-04T00:38:53.866Z,0.30
2019-01-04T00:41:25.176Z,0.30
2019-01-04T00:43:56.730Z,0.40
2019-01-04T00:46:28.070Z,0.30
2019-01-04T00:48:59.431Z,0.40
2019-01-04T00:51:31.257Z,0.40
2019-01-04T00:54:02.599Z,0.40
2019-01-04T00:57:07.744Z,0.30
2019-01-04T01:00:14.070Z,0.30
2019-01-04T01:03:27.665Z,0.30
2019-01-04T01:06:51.617Z,0.20
2019-01-04T01:10:08.361Z,0.20
2019-01-04T01:13:29.582Z,0.10
2019-01-04T01:16:45.736Z,0.20
2019-01-04T01:20:02.224Z,0.20
2019-01-04T01:23:33.104Z,0.20
2019-01-04T01:26:46.855Z,0.20
2019-01-04T01:30:10.970Z,0.20
2019-01-04T01:33:08.737Z,0.20
2019-01-04T01:36:24.883Z,0.20
2019-01-04T01:39:36.260Z,0.20
2019-01-04T01:42:49.366Z,0.20
2019-01-04T01:45:49.306Z,0.20
2019-01-04T01:48:39.811Z,0.20
2019-01-04T01:51:45.802Z,0.10
2019-01-04T01:54:17.919Z,0.20
2019-01-04T01:56:51.580Z,0.20
2019-01-04T01:59:23.047Z,0.20
2019-01-04T02:01:54.365Z,0.20
2019-01-04T02:04:25.733Z,0.10
2019-01-04T02:06:57.014Z,0.10
2019-01-04T02:09:28.346Z,0.20
2019-01-04T02:11:59.763Z,0.20
2019-01-04T02:14:31.130Z,0.30
2019-01-04T02:17:02.878Z,0.30
2019-01-04T02:19:34.197Z,0.30
2019-01-04T02:22:05.562Z,0.30
2019-01-04T02:24:36.930Z,0.30
2019-01-04T02:27:09.259Z,0.30
2019-01-04T02:29:40.590Z,0.30
2019-01-04T02:32:11.990Z,0.30
2019-01-04T02:34:43.313Z,0.30
2019-01-04T02:37:14.627Z,0.30
2019-01-04T02:39:45.978Z,0.30
2019-01-04T02:42:17.338Z,0.30
2019-01-04T02:44:48.659Z,0.30
2019-01-04T02:47:20.789Z,0.30
2019-01-04T02:49:53.160Z,0.40
2019-01-04T02:52:24.500Z,0.40
2019-01-04T02:54:55.833Z,0.40
2019-01-04T02:57:27.182Z,0.40
2019-01-04T02:59:58.496Z,0.40
2019-01-04T03:02:29.848Z,0.40
2019-01-04T03:05:01.227Z,0.40
2019-01-04T03:07:32.774Z,0.40
2019-01-04T03:10:04.095Z,0.40
2019-01-04T03:12:35.575Z,0.50
2019-01-04T03:15:07.281Z,0.50
2019-01-04T03:17:38.609Z,0.50
2019-01-04T03:20:09.934Z,0.50
2019-01-04T03:22:41.371Z,0.40
2019-01-04T03:25:12.680Z,0.40
2019-01-04T03:27:44.168Z,0.40
2019-01-04T03:30:15.511Z,0.40
2019-01-04T03:32:46.796Z,0.40
2019-01-04T03:35:18.125Z,0.40
2019-01-04T03:37:49.440Z,0.40
2019-01-04T03:40:20.781Z,0.20
2019-01-04T03:42:52.088Z,0.20
2019-01-04T03:45:23.415Z,0.20
2019-01-04T03:47:54.761Z,0.20
2019-01-04T03:50:26.118Z,0.20
2019-01-04T03:52:57.489Z,0.20
2019-01-04T03:55:29.174Z,0.20
2019-01-04T03:58:00.571Z,0.20
2019-01-04T04:00:31.960Z,0.10
2019-01-04T04:03:03.301Z,0.10
2019-01-04T04:05:34.602Z,0.10
2019-01-04T04:08:05.950Z,0.10
2019-01-04T04:10:37.313Z,0.10
2019-01-04T04:13:10.479Z,0.10
2019-01-04T04:15:41.856Z,0.10
2019-01-04T04:18:13.222Z,0.10
2019-01-04T04:20:44.582Z,0.10
2019-01-04T04:23:15.873Z,0.10
2019-01-04T04:25:49.126Z,0.10
2019-01-04T04:28:20.457Z,0.10
2019-01-04T04:30:51.822Z,0.10
2019-01-04T04:33:23.392Z,0.20
2019-01-04T04:35:54.858Z,0.20
2019-01-04T04:38:26.394Z,0.20
2019-01-04T04:40:57.669Z,0.30
2019-01-04T04:43:29.014Z,0.30
2019-01-04T04:46:00.334Z,0.30
2019-01-04T04:48:31.912Z,0.30
2019-01-04T04:51:03.436Z,0.30
2019-01-04T04:53:35.979Z,0.30
2019-01-04T04:56:08.541Z,0.30
2019-01-04T04:58:39.893Z,0.30
2019-01-04T05:01:11.222Z,0.30
2019-01-04T05:03:42.553Z,0.30
2019-01-04T05:06:13.924Z,0.30
2019-01-04T05:08:45.210Z,0.30
2019-01-04T05:11:17.539Z,0.30
2019-01-04T05:13:49.218Z,0.30
2019-01-04T05:16:20.586Z,0.30
2019-01-04T05:18:51.939Z,0.30
2019-01-04T05:21:23.349Z,0.30
2019-01-04T05:23:54.904Z,0.30
2019-01-04T05:26:26.232Z,0.30
2019-01-04T05:28:58.920Z,0.30
2019-01-04T05:31:30.235Z,0.30
2019-01-04T05:34:01.546Z,0.30
2019-01-04T05:36:32.889Z,0.30
2019-01-04T05:39:05.807Z,0.30
2019-01-04T05:41:37.146Z,0.20
2019-01-04T05:44:08.432Z,0.20
2019-01-04T05:46:39.750Z,0.20
2019-01-04T05:49:11.097Z,0.20
2019-01-04T05:51:42.460Z,0.20
2019-01-04T05:54:13.785Z,0.20
2019-01-04T05:56:46.013Z,0.20
2019-01-04T05:59:17.346Z,0.20
2019-01-04T06:01:48.902Z,0.20
2019-01-04T06:04:20.231Z,0.20
2019-01-04T06:06:51.584Z,0.20
2019-01-04T06:09:23.244Z,0.20
2019-01-04T06:11:54.889Z,0.20
2019-01-04T06:14:26.286Z,0.20
2019-01-04T06:16:57.813Z,0.20
2019-01-04T06:19:29.129Z,0.20
2019-01-04T06:22:00.451Z,0.20
2019-01-04T06:24:32.239Z,0.20
2019-01-04T06:27:03.573Z,0.30
2019-01-04T06:29:34.952Z,0.20
2019-01-04T06:32:06.286Z,0.20
2019-01-04T06:34:37.583Z,0.20
2019-01-04T06:37:08.991Z,0.20
2019-01-04T06:39:40.287Z,0.10
2019-01-04T06:42:11.619Z,0.20
2019-01-04T06:44:42.934Z,0.10
2019-01-04T06:47:16.005Z,0.10
2019-01-04T06:49:47.989Z,0.10
2019-01-04T06:52:20.379Z,0.10
2019-01-04T06:55:43.056Z,0.10
2019-01-04T06:58:14.381Z,0.10
2019-01-04T07:00:46.731Z,0.00
2019-01-04T07:03:18.033Z,0.00
2019-01-04T07:05:49.373Z,0.00
2019-01-04T07:08:21.102Z,0.00
2019-01-04T07:10:52.414Z,0.00
2019-01-04T07:13:23.761Z,0.00
2019-01-04T07:15:55.174Z,0.00
2019-01-04T07:18:26.507Z,0.00
2019-01-04T07:20:57.840Z,0.00
2019-01-04T07:23:29.225Z,0.00
2019-01-04T07:26:00.571Z,0.00
2019-01-04T07:28:31.938Z,-0.10
2019-01-04T07:31:03.304Z,-0.10
2019-01-04T07:33:34.670Z,-0.10
2019-01-04T07:36:06.230Z,-0.10
2019-01-04T07:38:37.597Z,-0.10
2019-01-04T07:41:08.905Z,0.00
2019-01-04T07:43:40.237Z,0.00
2019-01-04T07:46:11.568Z,0.00
2019-01-04T07:48:42.886Z,0.00
2019-01-04T07:51:14.429Z,0.00
2019-01-04T07:53:45.771Z,0.10
2019-01-04T07:56:17.081Z,0.00
2019-01-04T07:58:48.454Z,0.10
2019-01-04T08:01:19.786Z,0.10
2019-01-04T08:03:51.118Z,0.10
2019-01-04T08:06:22.456Z,0.10
2019-01-04T08:08:53.767Z,0.20
2019-01-04T08:11:25.314Z,0.20
2019-01-04T08:13:56.635Z,0.20
2019-01-04T08:16:27.999Z,0.30
2019-01-04T08:18:59.317Z,0.30
2019-01-04T08:21:30.613Z,0.30
2019-01-04T08:24:03.023Z,0.30
2019-01-04T08:26:34.421Z,0.30
2019-01-04T08:29:06.860Z,0.40
2019-01-04T08:31:38.309Z,0.40
2019-01-04T08:34:09.641Z,0.40
2019-01-04T08:36:42.011Z,0.40
2019-01-04T08:39:13.375Z,0.40
2019-01-04T08:41:45.021Z,0.50
2019-01-04T08:44:16.328Z,0.50
2019-01-04T08:46:48.018Z,0.50
2019-01-04T08:49:19.390Z,0.50
2019-01-04T08:51:50.938Z,0.60
2019-01-04T08:54:22.301Z,0.60
2019-01-04T08:56:53.654Z,0.60
2019-01-04T08:59:25.033Z,0.60
2019-01-04T09:01:56.586Z,0.70
2019-01-04T09:04:27.958Z,0.70
2019-01-04T09:06:59.317Z,0.70
2019-01-04T09:09:30.641Z,0.70
2019-01-04T09:12:02.182Z,0.70
2019-01-04T09:14:33.713Z,0.70
2019-01-04T09:17:05.150Z,0.70
2019-01-04T09:19:36.942Z,0.70
2019-01-04T09:22:08.310Z,0.70
2019-01-04T09:24:39.654Z,0.70
2019-01-04T09:27:11.046Z,0.70
2019-01-04T09:29:42.367Z,0.80
2019-01-04T09:32:13.707Z,0.70
2019-01-04T09:34:45.066Z,0.70
2019-01-04T09:37:16.425Z,0.80
2019-01-04T09:39:47.947Z,0.80
2019-01-04T09:42:21.520Z,0.80
2019-01-04T09:44:54.814Z,0.80
2019-01-04T09:47:26.160Z,0.90
2019-01-04T09:49:57.444Z,0.80
2019-01-04T09:52:28.675Z,0.90
2019-01-04T09:54:59.917Z,0.90
2019-01-04T09:57:31.770Z,0.90
2019-01-04T10:00:03.001Z,0.90
2019-01-04T10:02:34.276Z,1.00
2019-01-04T10:05:06.282Z,1.00
2019-01-04T10:07:37.525Z,1.00
2019-01-04T10:10:11.714Z,1.00
2019-01-04T10:12:43.091Z,1.00
2019-01-04T10:15:16.461Z,1.00
2019-01-04T10:17:47.788Z,1.00
2019-01-04T10:20:19.033Z,1.10
2019-01-04T10:22:50.293Z,1.10
2019-01-04T10:25:21.985Z,1.20
2019-01-04T10:27:53.273Z,1.20
2019-01-04T10:30:28.355Z,1.30
2019-01-04T10:32:59.603Z,1.30
2019-01-04T10:35:30.871Z,1.30
2019-01-04T10:38:02.266Z,1.30
2019-01-04T10:40:34.686Z,1.30
2019-01-04T10:43:05.921Z,1.40
2019-01-04T10:45:37.311Z,1.40
2019-01-04T10:48:12.324Z,1.40
2019-01-04T10:50:43.756Z,1.40
2019-01-04T10:53:14.946Z,1.50
2019-01-04T10:55:46.188Z,1.50
2019-01-04T10:58:17.422Z,1.60
2019-01-04T11:00:48.830Z,1.60
2019-01-04T11:03:20.080Z,1.70
2019-01-04T11:05:51.772Z,1.70
2019-01-04T11:08:23.081Z,1.80
2019-01-04T11:10:54.340Z,1.80
2019-01-04T11:13:25.597Z,1.80
2019-01-04T11:15:56.858Z,1.90
2019-01-04T11:18:28.183Z,1.90
2019-01-04T11:21:01.884Z,2.00
2019-01-04T11:24:13.156Z,2.00
2019-01-04T11:26:53.220Z,2.00
2019-01-04T11:29:48.777Z,2.00
2019-01-04T11:32:54.109Z,2.00
2019-01-04T11:35:53.023Z,2.10
2019-01-04T11:39:02.576Z,2.10
2019-01-04T11:42:03.864Z,2.10
2019-01-04T11:44:57.239Z,2.10
2019-01-04T11:48:27.454Z,2.20
2019-01-04T11:51:36.161Z,2.30
2019-01-04T11:54:12.346Z,2.30
2019-01-04T11:56:43.585Z,2.30
2019-01-04T11:59:15.038Z,2.40
2019-01-04T12:01:46.282Z,2.30
2019-01-04T12:04:17.562Z,2.40
2019-01-04T12:06:48.822Z,2.40
2019-01-04T12:09:20.239Z,2.40
2019-01-04T12:11:52.446Z,2.40
2019-01-04T12:14:23.746Z,2.50
2019-01-04T12:16:55.002Z,2.50
2019-01-04T12:19:26.297Z,2.50
2019-01-04T12:21:57.560Z,2.50
2019-01-04T12:24:28.820Z,2.50
2019-01-04T12:27:00.084Z,2.50
2019-01-04T12:29:31.351Z,2.50
2019-01-04T12:32:02.618Z,2.60
2019-01-04T12:34:33.892Z,2.60
2019-01-04T12:37:05.174Z,2.50
2019-01-04T12:39:36.429Z,2.50
2019-01-04T12:42:07.691Z,2.60
2019-01-04T12:44:38.953Z,2.60
2019-01-04T12:47:10.203Z,2.60
2019-01-04T12:49:41.451Z,2.60
2019-01-04T12:52:12.710Z,2.60
2019-01-04T12:54:44.960Z,2.60
2019-01-04T12:57:16.209Z,2.60
2019-01-04T12:59:47.431Z,2.60
2019-01-04T13:02:18.740Z,2.60
2019-01-04T13:04:49.939Z,2.60
2019-01-04T13:07:21.205Z,2.60
2019-01-04T13:09:52.452Z,2.60
2019-01-04T13:12:23.809Z,2.60
2019-01-04T13:14:55.070Z,2.60
2019-01-04T13:17:26.366Z,2.70
2019-01-04T13:19:57.679Z,2.70
2019-01-04T13:22:28.910Z,2.70
2019-01-04T13:25:00.158Z,2.70
2019-01-04T13:27:31.414Z,2.60
2019-01-04T13:30:03.260Z,2.60
2019-01-04T13:32:34.536Z,2.60
2019-01-04T13:35:05.829Z,2.60
2019-01-04T13:37:37.084Z,2.70
2019-01-04T13:40:08.496Z,2.70
2019-01-04T13:42:39.756Z,2.70
2019-01-04T13:45:11.118Z,2.70
2019-01-04T13:47:42.362Z,2.70
2019-01-04T13:50:13.823Z,2.70
2019-01-04T13:52:45.108Z,2.70
2019-01-04T13:55:16.320Z,2.70
2019-01-04T13:57:47.590Z,2.70
2019-01-04T14:00:18.832Z,2.70
2019-01-04T14:02:50.272Z,2.70
2019-01-04T14:05:21.540Z,2.70
2019-01-04T14:07:53.254Z,2.80
2019-01-04T14:10:24.513Z,2.80
2019-01-04T14:12:55.808Z,2.80
2019-01-04T14:15:27.115Z,2.80
2019-01-04T14:17:58.401Z,2.80
2019-01-04T14:20:29.688Z,2.80
2019-01-04T14:23:00.944Z,2.80
2019-01-04T14:25:33.920Z,2.80
2019-01-04T14:28:05.164Z,2.80
2019-01-04T14:30:36.435Z,2.90
2019-01-04T14:33:07.656Z,2.90
2019-01-04T14:35:38.928Z,2.80
2019-01-04T14:38:10.154Z,2.90
2019-01-04T14:40:41.434Z,2.90
2019-01-04T14:43:12.700Z,2.90
2019-01-04T14:45:43.948Z,2.90
2019-01-04T14:48:15.626Z,2.90
2019-01-04T14:50:46.853Z,2.90
2019-01-04T14:53:18.117Z,2.90
2019-01-04T14:55:50.586Z,2.90
2019-01-04T14:58:21.875Z,2.90
2019-01-04T15:00:53.144Z,2.90
2019-01-04T15:03:24.932Z,2.90
2019-01-04T15:05:56.512Z,2.90
2019-01-04T15:08:27.785Z,2.90
2019-01-04T15:10:59.110Z,2.90
2019-01-04T15:13:30.781Z,2.90
2019-01-04T15:16:02.051Z,2.90
2019-01-04T15:18:33.793Z,2.90
2019-01-04T15:21:05.146Z,2.90
2019-01-04T15:23:37.496Z,2.90
2019-01-04T15:26:08.850Z,2.90
2019-01-04T15:28:40.305Z,2.90
2019-01-04T15:31:11.648Z,2.90
2019-01-04T15:33:42.989Z,2.90
2019-01-04T15:36:14.536Z,2.90
2019-01-04T15:38:45.973Z,2.90
2019-01-04T15:41:17.302Z,2.90
2019-01-04T15:43:48.689Z,2.90
2019-01-04T15:46:20.297Z,3.00
2019-01-04T15:48:51.787Z,2.90
2019-01-04T15:51:23.136Z,3.00
2019-01-04T15:53:54.405Z,3.00
2019-01-04T15:56:26.104Z,3.00
2019-01-04T15:58:57.357Z,2.90
2019-01-04T16:01:28.600Z,2.90
2019-01-04T16:04:00.862Z,2.90
2019-01-04T16:06:32.120Z,2.90
2019-01-04T16:09:04.654Z,2.90
2019-01-04T16:11:35.933Z,2.90
2019-01-04T16:14:07.434Z,2.90
2019-01-04T16:16:38.665Z,2.90
2019-01-04T16:19:09.925Z,2.90
2019-01-04T16:21:41.160Z,2.90
2019-01-04T16:24:12.614Z,2.90
2019-01-04T16:26:43.853Z,2.90
2019-01-04T16:29:15.102Z,2.80
2019-01-04T16:31:46.358Z,2.80
2019-01-04T16:34:17.797Z,2.80
2019-01-04T16:36:49.076Z,2.80
2019-01-04T16:39:20.362Z,2.80
2019-01-04T16:41:51.652Z,2.80
2019-01-04T16:44:23.060Z,2.80
2019-01-04T16:46:54.331Z,2.80
2019-01-04T16:49:25.661Z,2.80
2019-01-04T16:51:56.954Z,2.80
2019-01-04T16:54:28.632Z,2.80
2019-01-04T16:57:00.896Z,2.80
2019-01-04T16:59:33.158Z,2.80
2019-01-04T17:02:04.732Z,2.80
2019-01-04T17:04:36.854Z,2.80
2019-01-04T17:07:09.137Z,2.80
2019-01-04T17:09:40.425Z,2.80
2019-01-04T17:12:11.637Z,2.80
2019-01-04T17:14:43.085Z,2.80
2019-01-04T17:17:14.296Z,2.90
2019-01-04T17:19:45.577Z,2.90
2019-01-04T17:22:16.867Z,2.90
2019-01-04T17:24:48.131Z,2.90
2019-01-04T17:27:20.954Z,2.90
2019-01-04T17:29:52.205Z,2.90
2019-01-04T17:32:23.479Z,2.90
2019-01-04T17:34:54.766Z,2.90
2019-01-04T17:37:26.025Z,2.90
2019-01-04T17:39:57.336Z,2.90
2019-01-04T17:42:28.568Z,3.00
2019-01-04T17:44:59.856Z,3.00
2019-01-04T17:47:31.297Z,3.00
2019-01-04T17:50:03.399Z,3.00
2019-01-04T17:52:34.903Z,3.00
2019-01-04T17:55:07.119Z,3.00
2019-01-04T17:57:38.365Z,3.00
2019-01-04T18:00:11.015Z,3.00
2019-01-04T18:02:42.401Z,3.00
2019-01-04T18:05:13.800Z,3.00
2019-01-04T18:07:45.096Z,3.00
2019-01-04T18:10:16.422Z,3.00
2019-01-04T18:12:47.705Z,3.00
2019-01-04T18:15:18.989Z,3.00
2019-01-04T18:17:50.243Z,3.00
2019-01-04T18:20:21.468Z,3.00
2019-01-04T18:22:52.782Z,3.00
2019-01-04T18:25:24.037Z,2.90
2019-01-04T18:27:56.325Z,3.00
2019-01-04T18:30:27.554Z,2.90
2019-01-04T18:32:58.823Z,3.00
2019-01-04T18:35:30.092Z,2.90
2019-01-04T18:38:01.312Z,2.90
2019-01-04T18:40:32.602Z,2.90
2019-01-04T18:43:03.856Z,2.90
2019-01-04T18:45:35.109Z,2.90
2019-01-04T18:48:06.472Z,2.90
2019-01-04T18:50:37.772Z,2.90
2019-01-04T18:53:10.033Z,2.90
2019-01-04T18:55:41.273Z,2.90
2019-01-04T18:58:12.973Z,2.90
2019-01-04T19:00:44.235Z,2.90
2019-01-04T19:03:16.115Z,2.90
2019-01-04T19:05:47.935Z,2.90
2019-01-04T19:08:19.195Z,2.90
2019-01-04T19:10:50.457Z,2.90
2019-01-04T19:13:26.805Z,2.90
2019-01-04T19:15:55.098Z,2.90
2019-01-04T19:18:26.768Z,2.90
2019-01-04T19:20:59.024Z,2.90
2019-01-04T19:23:30.361Z,2.90
2019-01-04T19:26:02.646Z,2.90
2019-01-04T19:28:34.049Z,3.00
2019-01-04T19:31:05.360Z,2.90
2019-01-04T19:33:38.485Z,2.90
2019-01-04T19:36:09.753Z,2.90
2019-01-04T19:38:41.017Z,3.00
2019-01-04T19:41:12.314Z,3.00
2019-01-04T19:43:43.604Z,3.00
2019-01-04T19:46:15.126Z,3.00
2019-01-04T19:48:46.557Z,3.00
2019-01-04T19:51:17.791Z,3.00
2019-01-04T19:53:49.069Z,3.00
2019-01-04T19:56:20.326Z,3.00
2019-01-04T19:58:51.595Z,3.00
2019-01-04T20:01:22.847Z,3.00
2019-01-04T20:03:54.260Z,3.00
2019-01-04T20:07:25.989Z,3.00
2019-01-04T20:11:22.561Z,3.00
2019-01-04T20:15:14.636Z,3.10
2019-01-04T20:18:06.449Z,3.00
2019-01-04T20:20:55.837Z,3.00
2019-01-04T20:23:44.765Z,3.00
2019-01-04T20:26:33.556Z,3.00
2019-01-04T20:29:39.627Z,3.00
2019-01-04T20:32:28.353Z,3.00
2019-01-04T20:35:16.839Z,3.10
2019-01-04T20:38:05.355Z,3.00
2019-01-04T20:41:01.209Z,3.10
2019-01-04T20:43:49.725Z,3.00
2019-01-04T20:46:39.139Z,3.00
2019-01-04T20:49:44.212Z,3.00
2019-01-04T20:52:32.684Z,3.00
2019-01-04T20:55:21.338Z,3.10
2019-01-04T20:58:11.435Z,3.10
2019-01-04T21:01:01.708Z,3.10
2019-01-04T21:03:58.665Z,3.10
2019-01-04T21:06:52.581Z,3.10
2019-01-04T21:09:54.825Z,3.10
2019-01-04T21:12:47.713Z,3.10
2019-01-04T21:15:36.574Z,3.10
2019-01-04T21:18:38.970Z,3.10
2019-01-04T21:21:27.680Z,3.00
2019-01-04T21:24:24.281Z,3.10
2019-01-04T21:27:10.958Z,3.10
2019-01-04T21:30:24.929Z,3.00
2019-01-04T21:33:18.120Z,3.10
2019-01-04T21:36:17.153Z,3.10
2019-01-04T21:39:16.856Z,3.00
2019-01-04T21:42:15.945Z,3.00
2019-01-04T21:45:04.446Z,3.10
2019-01-04T21:47:53.437Z,3.00
2019-01-04T21:50:42.029Z,3.00
2019-01-04T21:53:35.234Z,3.10
2019-01-04T21:56:43.665Z,3.10
2019-01-04T21:59:40.496Z,3.10
2019-01-04T22:02:39.713Z,3.10
2019-01-04T22:05:28.616Z,3.10
2019-01-04T22:08:17.327Z,3.10
2019-01-04T22:11:11.425Z,3.10
2019-01-04T22:14:00.229Z,3.10
2019-01-04T22:16:49.035Z,3.10
2019-01-04T22:19:45.941Z,3.10
2019-01-04T22:22:38.526Z,3.10
2019-01-04T22:25:28.900Z,3.00
2019-01-04T22:28:22.086Z,3.00
2019-01-04T22:31:10.610Z,3.10
2019-01-04T22:34:02.437Z,3.10
2019-01-04T22:36:56.498Z,3.10
2019-01-04T22:39:45.175Z,3.10
2019-01-04T22:42:34.748Z,3.10
2019-01-04T22:45:30.793Z,3.10
2019-01-04T22:48:16.737Z,3.10
2019-01-04T22:51:26.191Z,3.10
2019-01-04T22:54:19.364Z,3.10
2019-01-04T22:57:18.277Z,3.10
2019-01-04T23:00:11.136Z,3.10
2019-01-04T23:03:01.389Z,3.10
2019-01-04T23:06:09.412Z,3.10
2019-01-04T23:08:56.930Z,3.10
2019-01-04T23:11:49.789Z,3.10
2019-01-04T23:14:51.120Z,3.20
2019-01-04T23:17:41.237Z,3.10
2019-01-04T23:20:29.899Z,3.10
2019-01-04T23:23:21.254Z,3.20
2019-01-04T23:26:26.605Z,3.10
2019-01-04T23:29:15.129Z,3.10
2019-01-04T23:32:07.977Z,3.20
2019-01-04T23:35:04.421Z,3.20
2019-01-04T23:38:03.403Z,3.20
2019-01-04T23:40:51.981Z,3.10
2019-01-04T23:43:42.414Z,3.10
2019-01-04T23:46:32.709Z,3.20
2019-01-04T23:49:29.061Z,3.20
2019-01-04T23:52:19.301Z,3.20
2019-01-04T23:55:18.889Z,3.10
2019-01-04T23:58:07.358Z,3.10
